Sedgwick Reserve, California Weather observations

Data are for 10 minute period ending at time listed.
 Day   Time   Solar   Ave.   Ave.  Ave.  Vector  Max.   Baro.   Total    
  of    of     Rad.   Air    Rel.  Wind   Wind   Wind  Press.  Precip.   
Year   Day            Temp.  Hum.  Speed  Dir.   Gust                    
2014   (PST)  Kw/m2    F      %     mph   deg.    mph    mb.     in.     
-------------------------------------------------------------------------
 261    5:00   0.00   54.1    83    1.2   307     2.9   968.8    0.00 
 261    5:10   0.00   54.4    84    1.0   267     2.2   968.9    0.00 
 261    5:20   0.00   54.4    84    0.2    50     1.2   969.0    0.00 
 261    5:30   0.00   54.0    84    2.6    22     5.0   969.1    0.00 
 261    5:40   0.00   53.8    85    2.0    28     3.9   969.1    0.00 
 261    5:50   0.00   53.9    84    2.2   266     3.5   969.1    0.00 
 261    6:00   0.00   54.1    84    1.7   324     3.4   969.2    0.00 
 261    6:10   0.01   54.2    84    1.8   296     2.6   969.3    0.00 
 261    6:20   0.05   55.3    82    0.3   318     1.7   969.4    0.00 
 261    6:30   0.08   56.0    79    2.1     7     3.4   969.4    0.00 
 261    6:40   0.11   57.5    77    1.7     2     3.5   969.4    0.00 
 261    6:50   0.13   58.5    74    2.0     1     3.5   969.4    0.00 
 261    7:00   0.17   59.6    74    1.5   253     2.7   969.5    0.00 
 261    7:10   0.18   63.0    69    0.9    82     2.3   969.6    0.00 
 261    7:20   0.23   65.0    65    0.9    88     2.0   969.8    0.00 
 261    7:30   0.26   66.4    63    1.2    99     3.1   970.0    0.00 
 261    7:40   0.29   67.2    63    1.3   166     4.4   970.1    0.00 
 261    7:50   0.33   67.3    63    1.9   101     4.0   970.3    0.00 
 261    8:00   0.36   68.1    61    2.0   106     3.8   970.3    0.00 
 261    8:10   0.39   67.6    61    3.1   125     5.1   970.4    0.00 
 261    8:20   0.42   69.0    59    3.7    84     5.9   970.4    0.00 
 261    8:30   0.45   70.0    57    3.9    88     6.2   970.5    0.00 
 261    8:40   0.48   70.9    56    1.7    87     4.7   970.6    0.00 
 261    8:50   0.51   72.0    54    3.3   130     7.2   970.6    0.00 
 261    9:00   0.54   71.9    55    2.9   162     5.7   970.6    0.00 
 261    9:10   0.56   72.5    55    3.7   152     7.1   970.6    0.00 
 261    9:20   0.59   73.2    55    5.3   142     9.0   970.5    0.00 
 261    9:30   0.62   73.8    54    6.2   120     9.9   970.6    0.00 
 261    9:40   0.64   75.0    53    5.1   110     9.3   970.6    0.00 
 261    9:50   0.66   75.8    52    4.4    90     7.9   970.6    0.00 
 261   10:00   0.69   76.1    53    3.3   357     5.9   970.6    0.00 
 261   10:10   0.70   77.5    53    3.7   154     7.7   970.4    0.00 
 261   10:20   0.72   78.0    54    5.1   261     9.5   970.3    0.00 
 261   10:30   0.74   77.2    56    4.7   254     9.5   970.3    0.00 
 261   10:40   0.76   77.7    55    4.3   240    10.6   970.1    0.00 
 261   10:50   0.77   79.8    51    5.7   292    10.2   970.0    0.00 
 261   11:00   0.78   79.4    51    5.5   285    13.7   969.9    0.00 
 261   11:10   0.77   79.9    51    8.0   274    13.4   969.8    0.00 
 261   11:20   0.79   79.8    52    8.6   242    14.1   969.6    0.00 
 261   11:30   0.81   78.6    55    8.7   225    14.3   969.5    0.00 
 261   11:40   0.82   79.3    53   10.2   271    18.2   969.4    0.00 
 261   11:50   0.82   79.6    53    8.5   262    15.6   969.3    0.00 
 261   12:00   0.82   80.2    51   10.0   254    17.2   969.2    0.00 
 261   12:10   0.82   80.0    51    9.9   260    17.0   969.1    0.00 
 261   12:20   0.82   80.2    51    8.6   237    15.2   969.1    0.00 
 261   12:30   0.82   81.3    49    9.0   265    15.3   969.0    0.00 
 261   12:40   0.81   81.3    49    9.0   259    16.3   969.0    0.00 
 261   12:50   0.80   80.8    50   11.3   253    18.3   968.8    0.00 
 261   13:00   0.80   81.2    49   11.7   271    18.1   968.8    0.00 
 261   13:10   0.79   80.7    51   13.2   264    22.1   968.7    0.00 
 261   13:20   0.78   80.5    52   11.9   267    20.6   968.7    0.00 
 261   13:30   0.76   81.2    50   11.9   258    22.0   968.6    0.00 
 261   13:40   0.74   80.6    51   12.4   273    19.4   968.5    0.00 
 261   13:50   0.72   80.6    51   11.5   268    19.7   968.4    0.00 
 261   14:00   0.70   80.2    52   12.9   260    20.0   968.3    0.00 
 261   14:10   0.69   80.6    51   13.1   278    22.1   968.3    0.00 
 261   14:20   0.66   79.9    52   11.7   281    19.7   968.3    0.00 
 261   14:30   0.64   81.2    50    8.7   313    19.4   968.3    0.00 
 261   14:40   0.62   81.0    50    9.3   305    19.6   968.3    0.00 
 261   14:50   0.58   79.6    52    9.2   314    18.4   968.2    0.00 
 261   15:00   0.55   80.2    51    8.8   292    16.1   968.3    0.00 
 261   15:10   0.53   79.4    53    9.4   318    20.5   968.3    0.00 
 261   15:20   0.50   78.7    54    8.0   306    15.6   968.3    0.00 
 261   15:30   0.47   78.4    54    8.6   323    15.9   968.4    0.00 
 261   15:40   0.43   78.4    54    8.5   296    17.2   968.4    0.00 
 261   15:50   0.40   76.8    57   10.1   314    17.9   968.4    0.00 
 261   16:00   0.36   76.6    57    9.2   301    15.9   968.4    0.00 
 261   16:10   0.33   75.7    59   10.6   297    16.9   968.5    0.00 
 261   16:20   0.30   75.4    60    8.3   291    17.8   968.5    0.00 
 261   16:30   0.27   75.2    60    9.1   301    16.1   968.6    0.00 
 261   16:40   0.24   73.6    63   12.1   301    19.6   968.7    0.00 
 261   16:50   0.20   72.8    64   10.8   291    18.0   968.6    0.00 
 261   17:00   0.17   72.0    66   12.2   289    17.1   968.5    0.00 
 261   17:10   0.14   71.7    67    9.9   292    17.9   968.7    0.00 
 261   17:20   0.11   70.4    69   10.3   296    16.3   968.8    0.00 
 261   17:30   0.08   69.7    69    9.9   289    17.2   968.8    0.00 
 261   17:40   0.06   68.6    73    8.4   283    17.0   968.9    0.00 
 261   17:50   0.02   68.0    75    8.1   290    15.6   968.8    0.00 
 261   18:00   0.00   67.1    77    9.9   282    16.2   968.8    0.00 
 261   18:10   0.00   66.7    78    8.7   285    15.1   968.8    0.00 
 261   18:20   0.00   66.3    78    8.3   284    14.1   968.8    0.00 
 261   18:30   0.00   66.0    79    6.1   288    11.1   968.8    0.00 
 261   18:40   0.00   65.6    79    6.2   301    10.1   968.6    0.00 
 261   18:50   0.00   65.3    80    3.3   332     7.6   968.6    0.00 
 261   19:00   0.00   65.0    81    1.8   337     4.2   968.4    0.00 
 261   19:10   0.00   64.4    82    3.1   238     5.0   968.4    0.00 
 261   19:20   0.00   64.1    84    4.9   250     8.6   968.7    0.00 
 261   19:30   0.00   64.1    84    4.4   277     8.6   969.0    0.00 
 261   19:40   0.00   63.7    84    2.7   341     5.8   969.0    0.00 
 261   19:50   0.00   63.2    85    2.7   292     4.0   969.3    0.00 
 261   20:00   0.00   63.2    85    1.2   322     2.8   969.2    0.00 
 261   20:10   0.00   62.9    85    0.6   280     2.0   969.1    0.00 
 261   20:20   0.00   62.1    86    2.2   231     3.3   969.1    0.00 
 261   20:30   0.00   61.7    88    2.7   224     3.8   969.1    0.00 
 261   20:40   0.00   61.6    89    1.9   256     2.9   969.2    0.00 
 261   20:50   0.00   61.2    88    2.6   328     3.9   969.3    0.00 
 261   21:00   0.00   60.5    90    2.8   354     5.4   969.4    0.00 
 261   21:10   0.00   60.4    89    1.8     0     3.5   969.4    0.00 
 261   21:20   0.00   60.4    88    1.9    24     2.6   969.5    0.00 
 261   21:30   0.00   61.8    88    1.1     6     2.2   969.5    0.00 
 261   21:40   0.00   61.6    86    1.7   358     3.4   969.5    0.00 
 261   21:50   0.00   62.6    86    1.9   335     2.9   969.5    0.00 
 261   22:00   0.00   63.6    85    1.3   350     3.5   969.5    0.00 
 261   22:10   0.00   64.0    84    0.6   243     3.5   969.6    0.00 
 261   22:20   0.00   64.1    87    3.4   282     5.0   969.5    0.00 
 261   22:30   0.00   64.0    88    2.7   278     4.5   969.5    0.00 
 261   22:40   0.00   63.9    89    3.3   236     4.9   969.4    0.00 
 261   22:50   0.00   63.9    89    2.9   239     4.5   969.4    0.00 
 261   23:00   0.00   63.9    87    2.3   282     4.1   969.5    0.00 
 261   23:10   0.00   64.2    86    2.1   248     3.4   969.5    0.00 
 261   23:20   0.00   64.0    88    4.1   263     5.5   969.5    0.00 
 261   23:30   0.00   63.4    89    5.7   268     7.1   969.6    0.00 
 261   23:40   0.00   63.1    90    6.1   271     8.1   969.6    0.00 
 261   23:50   0.00   62.9    90    5.9   274     8.0   969.6    0.00 
 262    0:00   0.00   62.9    89    5.0   279     7.5   969.6    0.00 
 262    0:10   0.00   62.8    89    5.2   262     8.0   969.6    0.00 
 262    0:20   0.00   62.7    88    6.4   270     8.6   969.5    0.00 
 262    0:30   0.00   62.7    88    4.1   277     6.1   969.6    0.00 
 262    0:40   0.00   62.9    87    3.9   288     6.7   969.6    0.00 
 262    0:50   0.00   62.8    87    3.5   273     5.5   969.6    0.00 
 262    1:00   0.00   62.7    87    4.7   258     7.2   969.6    0.00 
 262    1:10   0.00   62.6    87    4.6   260     6.8   969.7    0.00 
 262    1:20   0.00   62.6    87    5.0   273     8.0   969.7    0.00 
 262    1:30   0.00   62.7    86    4.0   266     5.8   969.7    0.00 
 262    1:40   0.00   62.7    86    3.1   275     5.0   969.6    0.00 
 262    1:50   0.00   62.7    86    3.5   269     5.3   969.6    0.00 
 262    2:00   0.00   62.7    86    4.5   264     6.1   969.4    0.00 
 262    2:10   0.00   62.5    86    4.1   259     5.9   969.3    0.00 
 262    2:20   0.00   62.3    86    4.2   270     5.9   969.3    0.00 
 262    2:30   0.00   62.3    86    4.1   272     5.3   969.4    0.00 
 262    2:40   0.00   62.3    86    3.7   270     5.7   969.4    0.00 
 262    2:50   0.00   62.2    86    3.7   269     5.7   969.3    0.00 
 262    3:00   0.00   62.1    86    4.5   271     6.3   969.3    0.00 
 262    3:10   0.00   62.1    86    4.2   275     6.3   969.3    0.00 
 262    3:20   0.00   62.1    87    3.7   275     5.0   969.2    0.00 
 262    3:30   0.00   62.0    87    2.9   268     4.3   969.2    0.00 
 262    3:40   0.00   62.0    87    2.6   268     3.7   969.2    0.00 
 262    3:50   0.00   62.1    86    2.6   268     3.7   969.2    0.00 
 262    4:00   0.00   62.2    86    1.9   243     2.8   969.2    0.00 
 262    4:10   0.00   62.1    86    2.9   249     4.0   969.3    0.00 
 262    4:20   0.00   62.1    86    2.8   271     3.6   969.4    0.00 
 262    4:30   0.00   62.1    86    3.9   274     4.8   969.4    0.00 
 262    4:40   0.00   62.0    86    3.5   271     4.6   969.4    0.00 
 262    4:50   0.00   62.1    86    2.1   273     3.7   969.5    0.00 

Return to Sedgwick Reserve graphs page.


Western Regional Climate Center,wrcc@dri.edu